createdAt,value
2023-01-23T00:01:50.082Z,99534.75
2023-01-23T00:03:55.340Z,99535.47
2023-01-23T00:06:00.395Z,99542.28
2023-01-23T00:08:07.772Z,99539.63
2023-01-23T00:10:13.362Z,99538.84
2023-01-23T00:12:18.023Z,99545.69
2023-01-23T00:14:22.691Z,99545.47
2023-01-23T00:16:28.103Z,99558.34
2023-01-23T00:18:32.736Z,99552.31
2023-01-23T00:20:39.716Z,99559.19
2023-01-23T00:22:44.289Z,99554.06
2023-01-23T00:24:51.456Z,99560.94
2023-01-23T00:26:55.988Z,99559.34
2023-01-23T00:29:00.587Z,99561.94
2023-01-23T00:31:06.405Z,99557.59
2023-01-23T00:33:11.096Z,99566.94
2023-01-23T00:35:15.989Z,99556.66
2023-01-23T00:37:20.718Z,99548.06
2023-01-23T00:39:27.473Z,99549.84
2023-01-23T00:41:34.759Z,99554.97
2023-01-23T00:43:39.312Z,99563.63
2023-01-23T00:45:43.925Z,99551.59
2023-01-23T00:47:50.674Z,99552.44
2023-01-23T00:49:57.629Z,99560.13
2023-01-23T00:52:02.193Z,99563.59
2023-01-23T00:54:06.984Z,99560.13
2023-01-23T00:56:11.791Z,99564.34
2023-01-23T00:58:19.000Z,99565.16
2023-01-23T01:00:23.718Z,99571.16
2023-01-23T01:02:28.456Z,99571.22
2023-01-23T01:04:33.067Z,99574.66
2023-01-23T01:06:40.537Z,99576.41
2023-01-23T01:08:45.050Z,99584.13
2023-01-23T01:10:49.635Z,99575.56
2023-01-23T01:12:54.157Z,99573.00
2023-01-23T01:15:02.437Z,99582.44
2023-01-23T01:17:07.209Z,99578.16
2023-01-23T01:19:11.783Z,99579.91
2023-01-23T01:21:17.460Z,99582.44
2023-01-23T01:23:22.450Z,99579.94
2023-01-23T01:25:27.030Z,99579.00
2023-01-23T01:27:32.313Z,99589.28
2023-01-23T01:29:37.079Z,99599.50
2023-01-23T01:31:45.040Z,99597.78
2023-01-23T01:33:50.649Z,99601.22
2023-01-23T01:35:56.670Z,99598.72
2023-01-23T01:38:01.552Z,99597.88
2023-01-23T01:40:06.395Z,99599.59
2023-01-23T01:42:11.012Z,99596.13
2023-01-23T01:44:19.173Z,99601.25
2023-01-23T01:46:24.924Z,99603.69
2023-01-23T01:48:34.133Z,99607.25
2023-01-23T01:50:38.720Z,99608.19
2023-01-23T01:52:44.306Z,99601.31
2023-01-23T01:54:49.990Z,99607.34
2023-01-23T01:56:56.290Z,99604.84
2023-01-23T01:59:01.448Z,99601.44
2023-01-23T02:01:06.229Z,99606.59
2023-01-23T02:03:10.971Z,99604.03
2023-01-23T02:05:22.883Z,99601.41
2023-01-23T02:07:29.742Z,99602.31
2023-01-23T02:09:34.790Z,99602.34
2023-01-23T02:11:39.802Z,99603.22
2023-01-23T02:13:46.034Z,99604.88
2023-01-23T02:15:50.858Z,99600.56
2023-01-23T02:17:57.508Z,99599.69
2023-01-23T02:20:06.151Z,99604.00
2023-01-23T02:22:20.687Z,99616.72
2023-01-23T02:24:29.010Z,99614.97
2023-01-23T02:26:38.055Z,99619.25
2023-01-23T02:28:44.162Z,99620.06
2023-01-23T02:30:50.907Z,99616.56
2023-01-23T02:33:10.232Z,99624.19
2023-01-23T02:35:16.234Z,99625.84
2023-01-23T02:37:21.674Z,99628.41
2023-01-23T02:39:27.681Z,99635.22
2023-01-23T02:41:37.079Z,99632.63
2023-01-23T02:43:41.982Z,99629.31
2023-01-23T02:45:46.542Z,99627.56
2023-01-23T02:47:53.070Z,99630.19
2023-01-23T02:49:58.874Z,99630.13
2023-01-23T02:52:03.626Z,99630.19
2023-01-23T02:54:08.701Z,99624.25
2023-01-23T02:56:13.249Z,99630.28
2023-01-23T02:58:32.654Z,99626.00
2023-01-23T03:00:37.298Z,99623.44
2023-01-23T03:02:41.866Z,99617.41
2023-01-23T03:04:48.045Z,99613.97
2023-01-23T03:06:52.683Z,99608.78
2023-01-23T03:08:57.654Z,99600.97
2023-01-23T03:11:02.227Z,99606.16
2023-01-23T03:13:08.647Z,99604.44
2023-01-23T03:15:16.079Z,99606.97
2023-01-23T03:17:20.688Z,99602.72
2023-01-23T03:19:27.127Z,99598.44
2023-01-23T03:21:31.777Z,99595.88
2023-01-23T03:23:36.625Z,99598.44
2023-01-23T03:25:45.408Z,99600.97
2023-01-23T03:27:50.415Z,99595.00
2023-01-23T03:30:07.688Z,99593.31
2023-01-23T03:32:15.901Z,99589.03
2023-01-23T03:34:22.368Z,99590.75
2023-01-23T03:36:27.044Z,99587.28
2023-01-23T03:38:31.731Z,99590.72
2023-01-23T03:40:48.780Z,99594.13
2023-01-23T03:42:54.631Z,99591.56
2023-01-23T03:45:04.750Z,99589.88
2023-01-23T03:47:11.906Z,99598.44
2023-01-23T03:49:20.846Z,99598.44
2023-01-23T03:51:31.958Z,99604.34
2023-01-23T03:53:36.574Z,99604.41
2023-01-23T03:55:41.406Z,99594.88
2023-01-23T03:57:45.994Z,99594.91
2023-01-23T04:00:01.930Z,99598.38
2023-01-23T04:02:18.375Z,99608.69
2023-01-23T04:04:25.727Z,99607.94
2023-01-23T04:06:30.420Z,99608.00
2023-01-23T04:08:35.021Z,99607.13
2023-01-23T04:10:39.644Z,99614.78
2023-01-23T04:12:51.190Z,99610.47
2023-01-23T04:14:56.553Z,99618.94
2023-01-23T04:17:01.183Z,99617.28
2023-01-23T04:19:06.376Z,99624.22
2023-01-23T04:21:13.613Z,99628.50
2023-01-23T04:23:18.337Z,99632.78
2023-01-23T04:25:23.004Z,99635.44
2023-01-23T04:27:27.652Z,99627.66
2023-01-23T04:29:33.753Z,99632.63
2023-01-23T04:31:39.633Z,99624.91
2023-01-23T04:33:44.387Z,99624.06
2023-01-23T04:35:53.905Z,99632.63
2023-01-23T04:38:01.168Z,99623.25
2023-01-23T04:40:07.858Z,99618.16
2023-01-23T04:42:22.033Z,99621.66
2023-01-23T04:44:39.567Z,99619.97
2023-01-23T04:47:15.063Z,99619.16
2023-01-23T04:49:20.086Z,99620.06
2023-01-23T04:51:25.585Z,99621.69
2023-01-23T04:53:32.870Z,99612.31
2023-01-23T04:55:39.906Z,99620.00
2023-01-23T04:57:47.462Z,99620.78
2023-01-23T05:00:01.590Z,99613.09
2023-01-23T05:02:07.497Z,99620.78
2023-01-23T05:04:18.445Z,99613.94
2023-01-23T05:06:25.186Z,99618.22
2023-01-23T05:08:35.688Z,99625.06
2023-01-23T05:10:50.018Z,99625.16
2023-01-23T05:12:56.767Z,99634.59
2023-01-23T05:15:03.187Z,99632.94
2023-01-23T05:17:08.489Z,99638.03
2023-01-23T05:19:18.020Z,99643.25
2023-01-23T05:21:23.151Z,99630.41
2023-01-23T05:23:27.832Z,99638.94
2023-01-23T05:25:35.561Z,99643.22
2023-01-23T05:27:41.563Z,99641.47
2023-01-23T05:29:46.199Z,99642.34
2023-01-23T05:31:58.489Z,99646.59
2023-01-23T05:34:15.123Z,99647.47
2023-01-23T05:36:19.855Z,99643.97
2023-01-23T05:38:25.191Z,99646.41
2023-01-23T05:40:31.252Z,99651.59
2023-01-23T05:42:57.013Z,99658.56
2023-01-23T05:45:20.063Z,99659.41
2023-01-23T05:47:25.171Z,99664.56
2023-01-23T05:49:30.218Z,99666.22
2023-01-23T05:51:35.447Z,99666.09
2023-01-23T05:53:40.066Z,99675.56
2023-01-23T05:55:45.381Z,99679.03
2023-01-23T05:57:51.783Z,99687.63
2023-01-23T06:00:31.445Z,99689.38
2023-01-23T06:03:06.670Z,99679.91
2023-01-23T06:05:43.488Z,99689.22
2023-01-23T06:07:54.379Z,99696.84
2023-01-23T06:09:58.994Z,99700.19
2023-01-23T06:12:03.750Z,99693.38
2023-01-23T06:14:08.414Z,99700.19
2023-01-23T06:16:16.084Z,99703.69
2023-01-23T06:18:21.983Z,99703.75
2023-01-23T06:20:26.556Z,99703.69
2023-01-23T06:22:31.596Z,99711.38
2023-01-23T06:24:43.744Z,99716.53
2023-01-23T06:26:48.594Z,99724.19
2023-01-23T06:28:53.294Z,99725.88
2023-01-23T06:30:57.978Z,99729.31
2023-01-23T06:33:15.252Z,99731.81
2023-01-23T06:35:20.326Z,99738.56
2023-01-23T06:37:25.080Z,99742.72
2023-01-23T06:39:30.317Z,99752.03
2023-01-23T06:41:35.486Z,99750.38
2023-01-23T06:43:42.487Z,99753.00
2023-01-23T06:45:53.624Z,99750.47
2023-01-23T06:47:58.360Z,99755.56
2023-01-23T06:50:07.668Z,99753.94
2023-01-23T06:52:15.177Z,99752.38
2023-01-23T06:54:22.842Z,99753.38
2023-01-23T06:56:27.562Z,99756.06
2023-01-23T06:58:32.224Z,99753.59
2023-01-23T07:00:37.497Z,99757.88
2023-01-23T07:02:45.613Z,99757.81
2023-01-23T07:04:50.632Z,99762.06
2023-01-23T07:06:58.151Z,99769.88
2023-01-23T07:09:02.823Z,99769.91
2023-01-23T07:11:08.459Z,99774.22
2023-01-23T07:13:14.522Z,99769.88
2023-01-23T07:15:19.347Z,99774.16
2023-01-23T07:17:25.862Z,99771.53
2023-01-23T07:19:30.701Z,99780.09
2023-01-23T07:21:36.911Z,99769.88
2023-01-23T07:23:44.166Z,99776.72
2023-01-23T07:25:48.863Z,99769.81
2023-01-23T07:27:53.510Z,99778.28
2023-01-23T07:29:58.060Z,99784.34
2023-01-23T07:32:03.309Z,99778.34
2023-01-23T07:34:07.884Z,99778.25
2023-01-23T07:36:14.112Z,99774.00
2023-01-23T07:38:18.717Z,99776.63
2023-01-23T07:40:26.134Z,99773.25
2023-01-23T07:42:30.690Z,99779.19
2023-01-23T07:44:35.396Z,99787.72
2023-01-23T07:46:39.988Z,99785.19
2023-01-23T07:48:44.712Z,99800.59
2023-01-23T07:50:49.333Z,99799.75
2023-01-23T07:52:56.138Z,99794.56
2023-01-23T07:55:01.459Z,99801.41
2023-01-23T07:57:08.689Z,99794.50
2023-01-23T07:59:14.536Z,99792.78
2023-01-23T08:01:19.422Z,99791.00
2023-01-23T08:03:24.030Z,99790.22
2023-01-23T08:05:28.622Z,99784.28
2023-01-23T08:07:33.162Z,99787.72
2023-01-23T08:09:38.560Z,99782.63
2023-01-23T08:11:43.112Z,99785.00
2023-01-23T08:13:51.451Z,99777.16
2023-01-23T08:15:56.218Z,99785.72
2023-01-23T08:18:00.808Z,99787.56
2023-01-23T08:20:05.677Z,99788.53
2023-01-23T08:22:10.284Z,99785.84
2023-01-23T08:24:15.195Z,99780.84
2023-01-23T08:26:20.214Z,99783.44
2023-01-23T08:28:26.870Z,99790.34
2023-01-23T08:30:34.067Z,99794.66
2023-01-23T08:32:39.024Z,99794.69
2023-01-23T08:34:43.744Z,99793.03
2023-01-23T08:36:48.288Z,99797.13
2023-01-23T08:38:52.899Z,99792.03
2023-01-23T08:40:58.016Z,99801.47
2023-01-23T08:43:02.587Z,99794.69
2023-01-23T08:45:07.677Z,99797.31
2023-01-23T08:47:14.888Z,99807.59
2023-01-23T08:49:20.440Z,99803.44
2023-01-23T08:51:25.737Z,99799.97
2023-01-23T08:53:30.759Z,99806.06
2023-01-23T08:55:36.200Z,99791.44
2023-01-23T08:57:40.759Z,99800.06
2023-01-23T08:59:45.804Z,99791.53
2023-01-23T09:01:50.416Z,99800.97
2023-01-23T09:03:57.895Z,99800.06
2023-01-23T09:06:03.564Z,99794.94
2023-01-23T09:08:08.093Z,99797.53
2023-01-23T09:10:13.881Z,99795.00
2023-01-23T09:12:18.455Z,99797.41
2023-01-23T09:14:23.014Z,99801.78
2023-01-23T09:16:27.764Z,99798.44
2023-01-23T09:18:32.397Z,99804.66
2023-01-23T09:20:40.289Z,99789.31
2023-01-23T09:22:44.909Z,99801.44
2023-01-23T09:24:49.492Z,99793.84
2023-01-23T09:26:54.021Z,99804.13
2023-01-23T09:28:58.568Z,99789.66
2023-01-23T09:31:05.429Z,99793.06
2023-01-23T09:33:10.532Z,99789.63
2023-01-23T09:35:15.181Z,99785.31
2023-01-23T09:37:22.341Z,99779.31
2023-01-23T09:39:26.898Z,99778.44
2023-01-23T09:41:32.044Z,99784.44
2023-01-23T09:43:41.026Z,99779.31
2023-01-23T09:45:50.289Z,99781.91
2023-01-23T09:47:58.133Z,99785.31
2023-01-23T09:50:04.489Z,99768.19
2023-01-23T09:52:13.422Z,99780.22
2023-01-23T09:54:25.950Z,99779.38
2023-01-23T09:56:32.275Z,99787.06
2023-01-23T09:58:39.912Z,99788.00
2023-01-23T10:00:44.518Z,99770.84
2023-01-23T10:02:49.567Z,99787.22
2023-01-23T10:04:56.251Z,99782.03
2023-01-23T10:07:11.466Z,99773.59
2023-01-23T10:09:29.360Z,99770.91
2023-01-23T10:11:42.862Z,99782.84
2023-01-23T10:13:57.523Z,99778.66
2023-01-23T10:16:17.018Z,99779.69
2023-01-23T10:18:27.116Z,99773.00
2023-01-23T10:20:46.717Z,99766.09
2023-01-23T10:22:58.480Z,99764.25
2023-01-23T10:25:11.828Z,99762.47
2023-01-23T10:27:21.467Z,99765.16
2023-01-23T10:29:31.766Z,99765.19
2023-01-23T10:31:39.045Z,99767.75
2023-01-23T10:33:49.474Z,99760.13
2023-01-23T10:35:55.810Z,99755.09
2023-01-23T10:40:14.299Z,99747.50
2023-01-23T10:42:23.933Z,99744.09
2023-01-23T10:44:28.798Z,99746.63
2023-01-23T10:46:37.817Z,99753.63
2023-01-23T10:48:46.006Z,99747.66
2023-01-23T10:50:51.724Z,99744.34
2023-01-23T10:53:09.438Z,99743.63
2023-01-23T10:55:34.052Z,99744.56
2023-01-23T10:57:49.090Z,99741.03
2023-01-23T11:00:00.544Z,99739.22
2023-01-23T11:02:22.063Z,99735.69
2023-01-23T11:04:29.732Z,99745.06
2023-01-23T11:06:34.587Z,99748.59
2023-01-23T11:08:41.599Z,99747.06
2023-01-23T11:10:49.077Z,99748.91
2023-01-23T11:12:56.442Z,99738.53
2023-01-23T11:15:16.581Z,99737.66
2023-01-23T11:17:26.667Z,99740.19
2023-01-23T11:19:34.985Z,99734.19
2023-01-23T11:21:51.903Z,99729.88
2023-01-23T11:24:12.096Z,99733.34
2023-01-23T11:26:37.947Z,99735.88
2023-01-23T11:28:51.545Z,99735.03
2023-01-23T11:31:13.807Z,99728.22
2023-01-23T11:33:36.646Z,99728.22
2023-01-23T11:36:03.125Z,99726.44
2023-01-23T11:38:09.193Z,99734.94
2023-01-23T11:40:17.783Z,99733.16
2023-01-23T11:42:30.064Z,99724.53
2023-01-23T11:44:45.659Z,99731.34
2023-01-23T11:47:09.183Z,99724.38
2023-01-23T11:49:27.378Z,99725.25
2023-01-23T11:51:39.414Z,99724.31
2023-01-23T11:53:53.060Z,99724.38
2023-01-23T11:56:32.736Z,99714.03
2023-01-23T11:59:04.913Z,99719.25
2023-01-23T12:01:16.051Z,99715.88
2023-01-23T12:03:50.946Z,99716.72
2023-01-23T12:08:50.419Z,99705.44
2023-01-23T12:11:13.943Z,99701.97
2023-01-23T12:13:36.466Z,99702.81
2023-01-23T12:15:50.036Z,99695.06
2023-01-23T12:20:27.471Z,99706.16
2023-01-23T12:22:43.483Z,99699.31
2023-01-23T12:25:13.908Z,99691.56
2023-01-23T12:27:27.618Z,99689.84
2023-01-23T12:29:52.448Z,99675.97
2023-01-23T12:32:17.628Z,99678.53
2023-01-23T12:34:32.803Z,99675.03
2023-01-23T12:37:10.248Z,99679.41
2023-01-23T12:39:34.716Z,99666.59
2023-01-23T12:41:45.432Z,99659.88
2023-01-23T12:43:57.109Z,99658.28
2023-01-23T12:46:06.721Z,99652.31
2023-01-23T12:48:18.721Z,99649.84
2023-01-23T12:50:31.931Z,99649.06
2023-01-23T12:52:42.806Z,99639.63
2023-01-23T12:54:53.775Z,99638.75
2023-01-23T12:56:59.466Z,99638.75
2023-01-23T12:59:14.377Z,99638.75
2023-01-23T13:01:32.755Z,99636.19
2023-01-23T13:03:56.078Z,99637.91
2023-01-23T13:06:13.321Z,99637.06
2023-01-23T13:08:29.112Z,99630.22
2023-01-23T13:11:03.414Z,99628.53
2023-01-23T13:13:09.089Z,99623.41
2023-01-23T13:15:39.626Z,99613.19
2023-01-23T13:17:50.540Z,99615.78
2023-01-23T13:20:34.075Z,99626.13
2023-01-23T13:22:39.214Z,99615.72
2023-01-23T13:25:00.096Z,99614.06
2023-01-23T13:27:55.833Z,99625.25
2023-01-23T13:30:02.460Z,99619.25
2023-01-23T13:32:30.809Z,99616.72
2023-01-23T13:34:41.809Z,99621.94
2023-01-23T13:36:50.995Z,99603.91
2023-01-23T13:39:22.734Z,99595.31
2023-01-23T13:41:31.558Z,99600.47
2023-01-23T13:43:45.080Z,99601.38
2023-01-23T13:45:52.721Z,99601.34
2023-01-23T14:21:27.766Z,99586.69
2023-01-23T14:23:40.961Z,99588.41
2023-01-23T14:25:46.005Z,99589.25
2023-01-23T14:28:05.680Z,99596.97
2023-01-23T14:30:20.473Z,99590.06
2023-01-23T14:32:26.237Z,99586.59
2023-01-23T14:34:31.404Z,99587.44
2023-01-23T14:36:37.598Z,99589.97
2023-01-23T14:38:42.432Z,99592.53
2023-01-23T14:40:51.095Z,99600.28
2023-01-23T14:43:03.048Z,99596.81
2023-01-23T14:45:09.375Z,99609.75
2023-01-23T14:47:19.571Z,99610.63
2023-01-23T14:49:29.819Z,99610.66
2023-01-23T14:51:34.668Z,99609.81
2023-01-23T14:53:43.436Z,99605.53
2023-01-23T14:55:52.667Z,99601.25
2023-01-23T14:58:02.769Z,99601.25
2023-01-23T15:00:08.970Z,99601.25
2023-01-23T15:02:31.227Z,99614.09
2023-01-23T15:04:36.303Z,99613.22
2023-01-23T15:06:41.163Z,99607.22
2023-01-23T15:08:46.235Z,99618.38
2023-01-23T15:10:53.315Z,99618.34
2023-01-23T15:13:03.873Z,99616.66
2023-01-23T15:15:20.709Z,99614.97
2023-01-23T15:17:25.901Z,99621.84
2023-01-23T15:19:31.654Z,99623.53
2023-01-23T15:21:42.045Z,99617.53
2023-01-23T15:24:03.143Z,99615.75
2023-01-23T15:26:33.669Z,99611.50
2023-01-23T15:28:45.071Z,99612.31
2023-01-23T15:30:50.661Z,99620.06
2023-01-23T15:32:55.496Z,99617.50
2023-01-23T15:35:00.427Z,99615.78
2023-01-23T15:37:08.713Z,99612.34
2023-01-23T15:39:21.476Z,99607.97
2023-01-23T15:41:41.279Z,99604.53
2023-01-23T15:43:48.744Z,99600.22
2023-01-23T15:45:53.791Z,99595.91
2023-01-23T15:47:58.626Z,99588.94
2023-01-23T15:50:04.005Z,99591.47
2023-01-23T15:52:21.365Z,99600.84
2023-01-23T15:54:31.126Z,99592.16
2023-01-23T15:56:37.611Z,99597.22
2023-01-23T15:58:42.392Z,99588.59
2023-01-23T16:00:49.857Z,99585.13
2023-01-23T16:02:57.052Z,99588.50
2023-01-23T16:05:03.099Z,99584.03
2023-01-23T16:07:10.573Z,99595.19
2023-01-23T16:09:26.134Z,99608.81
2023-01-23T16:11:34.601Z,99607.00
2023-01-23T16:13:39.894Z,99609.56
2023-01-23T16:15:44.587Z,99608.66
2023-01-23T16:17:52.987Z,99608.59
2023-01-23T16:19:57.818Z,99606.91
2023-01-23T16:22:05.323Z,99618.84
2023-01-23T16:24:18.698Z,99626.56
2023-01-23T16:26:25.888Z,99627.47
2023-01-23T16:28:32.592Z,99624.91
2023-01-23T16:30:37.454Z,99631.78
2023-01-23T16:32:42.783Z,99637.78
2023-01-23T16:34:50.732Z,99641.28
2023-01-23T16:36:58.884Z,99644.81
2023-01-23T16:39:05.170Z,99646.44
2023-01-23T16:41:12.440Z,99654.22
2023-01-23T16:43:17.327Z,99654.25
2023-01-23T16:45:25.239Z,99656.91
2023-01-23T16:47:30.830Z,99656.94
2023-01-23T16:49:46.756Z,99657.03
2023-01-23T16:52:03.084Z,99663.09
2023-01-23T16:54:18.311Z,99663.97
2023-01-23T16:56:24.350Z,99665.63
2023-01-23T16:58:31.938Z,99671.66
2023-01-23T17:00:38.113Z,99663.91
2023-01-23T17:02:43.287Z,99668.13
2023-01-23T17:04:48.417Z,99673.28
2023-01-23T17:06:53.411Z,99674.09
2023-01-23T17:09:01.029Z,99677.53
2023-01-23T17:11:08.211Z,99686.97
2023-01-23T17:13:14.945Z,99693.75
2023-01-23T17:15:26.858Z,99704.19
2023-01-23T17:17:34.730Z,99699.84
2023-01-23T17:19:42.565Z,99713.53
2023-01-23T17:21:48.092Z,99729.88
2023-01-23T17:23:53.324Z,99717.06
2023-01-23T17:26:01.808Z,99718.75
2023-01-23T17:28:12.445Z,99724.69
2023-01-23T17:30:20.054Z,99715.25
2023-01-23T17:32:30.803Z,99715.22
2023-01-23T17:34:49.463Z,99722.00
2023-01-23T17:36:56.092Z,99722.84
2023-01-23T17:39:03.217Z,99728.81
2023-01-23T17:41:15.844Z,99732.25
2023-01-23T17:43:22.104Z,99733.13
2023-01-23T17:45:29.179Z,99727.22
2023-01-23T17:47:35.545Z,99711.84
2023-01-23T17:49:40.720Z,99724.66
2023-01-23T17:51:45.574Z,99719.56
2023-01-23T17:53:51.505Z,99720.41
2023-01-23T17:55:56.487Z,99734.00
2023-01-23T17:58:03.917Z,99731.53
2023-01-23T18:00:10.767Z,99734.13
2023-01-23T18:02:26.781Z,99734.22
2023-01-23T18:04:31.805Z,99722.09
2023-01-23T18:06:36.829Z,99734.94
2023-01-23T18:08:42.482Z,99740.03
2023-01-23T18:10:49.930Z,99751.19
2023-01-23T18:13:07.234Z,99746.06
2023-01-23T18:15:19.326Z,99743.69
2023-01-23T18:17:36.287Z,99736.81
2023-01-23T18:19:41.765Z,99734.28
2023-01-23T18:21:47.563Z,99747.13
2023-01-23T18:23:52.926Z,99748.84
2023-01-23T18:26:04.814Z,99744.59
2023-01-23T18:28:20.075Z,99753.28
2023-01-23T18:30:49.157Z,99754.16
2023-01-23T18:33:09.869Z,99755.81
2023-01-23T18:35:29.662Z,99753.31
2023-01-23T18:37:44.172Z,99757.59
2023-01-23T18:40:01.831Z,99760.16
2023-01-23T18:42:18.744Z,99766.09
2023-01-23T18:44:29.298Z,99762.63
2023-01-23T18:46:34.865Z,99754.78
2023-01-23T18:48:42.002Z,99753.88
2023-01-23T18:51:08.447Z,99758.13
2023-01-23T18:53:24.566Z,99763.31
2023-01-23T18:55:39.758Z,99763.41
2023-01-23T18:58:11.300Z,99764.22
2023-01-23T19:00:25.002Z,99767.59
2023-01-23T19:02:36.027Z,99772.78
2023-01-23T19:04:47.332Z,99772.88
2023-01-23T19:06:52.991Z,99771.19
2023-01-23T19:08:58.171Z,99769.50
2023-01-23T19:11:11.421Z,99768.66
2023-01-23T19:13:22.702Z,99775.56
2023-01-23T19:15:34.834Z,99778.19
2023-01-23T19:17:49.156Z,99773.81
2023-01-23T19:20:05.771Z,99762.50
2023-01-23T19:22:14.417Z,99767.59
2023-01-23T19:24:22.280Z,99769.31
2023-01-23T19:26:29.750Z,99769.38
2023-01-23T19:28:37.780Z,99776.25
2023-01-23T19:30:47.009Z,99771.22
2023-01-23T19:32:52.356Z,99774.63
2023-01-23T19:35:12.524Z,99779.72
2023-01-23T19:37:18.729Z,99782.41
2023-01-23T19:39:23.357Z,99785.81
2023-01-23T19:41:30.893Z,99777.25
2023-01-23T19:43:35.742Z,99789.34
2023-01-23T19:45:40.544Z,99791.09
2023-01-23T19:47:49.296Z,99793.63
2023-01-23T19:49:54.121Z,99792.78
2023-01-23T19:51:59.007Z,99796.22
2023-01-23T19:54:06.591Z,99788.50
2023-01-23T19:56:13.668Z,99797.06
2023-01-23T19:58:18.479Z,99791.91
2023-01-23T20:00:23.618Z,99793.47
2023-01-23T20:02:29.090Z,99792.66
2023-01-23T20:04:36.722Z,99797.88
2023-01-23T20:06:41.729Z,99796.97
2023-01-23T20:08:46.530Z,99797.03
2023-01-23T20:10:51.363Z,99796.22
2023-01-23T20:12:56.843Z,99790.16
2023-01-23T20:15:01.759Z,99786.75
2023-01-23T20:17:06.774Z,99790.16
2023-01-23T20:19:15.701Z,99794.41
2023-01-23T20:21:24.593Z,99794.50
2023-01-23T20:23:29.724Z,99802.31
2023-01-23T20:25:34.385Z,99800.53
2023-01-23T20:27:39.605Z,99788.50
2023-01-23T20:29:44.184Z,99791.09
2023-01-23T20:31:50.012Z,99787.69
2023-01-23T20:33:54.861Z,99792.91
2023-01-23T20:35:59.697Z,99793.72
2023-01-23T20:38:07.136Z,99799.72
2023-01-23T20:40:14.266Z,99791.94
2023-01-23T20:42:19.348Z,99797.00
2023-01-23T20:44:24.416Z,99795.28
2023-01-23T20:46:29.772Z,99791.84
2023-01-23T20:48:36.574Z,99791.06
2023-01-23T20:50:41.566Z,99793.63
2023-01-23T20:52:58.809Z,99794.53
2023-01-23T20:55:06.465Z,99795.47
2023-01-23T20:57:11.783Z,99797.88
2023-01-23T20:59:19.812Z,99789.28
2023-01-23T21:01:27.990Z,99802.03
2023-01-23T21:03:33.079Z,99800.31
2023-01-23T21:05:37.920Z,99806.44
2023-01-23T21:07:42.898Z,99811.66
2023-01-23T21:09:48.237Z,99812.50
2023-01-23T21:11:56.607Z,99810.84
2023-01-23T21:14:01.482Z,99807.53
2023-01-23T21:16:08.648Z,99804.13
2023-01-23T21:18:13.634Z,99799.06
2023-01-23T21:20:18.964Z,99802.47
2023-01-23T21:22:23.830Z,99807.75
2023-01-23T21:24:28.947Z,99809.47
2023-01-23T21:26:33.966Z,99802.59
2023-01-23T21:28:41.520Z,99808.69
2023-01-23T21:30:46.552Z,99812.09
2023-01-23T21:32:51.466Z,99814.78
2023-01-23T21:34:56.322Z,99810.53
2023-01-23T21:37:01.227Z,99807.09
2023-01-23T21:39:09.350Z,99807.03
2023-01-23T21:41:15.217Z,99810.44
2023-01-23T21:43:20.021Z,99806.94
2023-01-23T21:45:27.845Z,99806.09
2023-01-23T21:47:32.675Z,99806.06
2023-01-23T21:49:37.577Z,99808.53
2023-01-23T21:51:42.448Z,99799.91
2023-01-23T21:53:49.041Z,99797.28
2023-01-23T21:55:54.979Z,99799.88
2023-01-23T21:57:59.772Z,99807.66
2023-01-23T22:00:17.254Z,99803.34
2023-01-23T22:02:24.819Z,99803.31
2023-01-23T22:04:29.957Z,99810.16
2023-01-23T22:06:35.412Z,99804.19
2023-01-23T22:08:40.288Z,99813.63
2023-01-23T22:10:45.126Z,99806.78
2023-01-23T22:12:50.501Z,99806.78
2023-01-23T22:14:55.340Z,99799.00
2023-01-23T22:17:00.287Z,99803.19
2023-01-23T22:19:07.855Z,99810.06
2023-01-23T22:21:13.112Z,99802.34
2023-01-23T22:23:17.729Z,99811.75
2023-01-23T22:25:22.879Z,99817.75
2023-01-23T22:27:28.057Z,99816.03
2023-01-23T22:29:32.862Z,99821.03
2023-01-23T22:31:37.809Z,99810.91
2023-01-23T22:33:44.462Z,99811.78
2023-01-23T22:35:52.533Z,99822.19
2023-01-23T22:37:57.367Z,99820.38
2023-01-23T22:40:02.236Z,99826.41
2023-01-23T22:42:07.352Z,99826.41
2023-01-23T22:44:11.966Z,99822.00
2023-01-23T22:46:19.437Z,99828.00
2023-01-23T22:48:24.280Z,99825.34
2023-01-23T22:50:29.626Z,99834.72
2023-01-23T22:52:37.147Z,99824.38
2023-01-23T22:54:42.010Z,99837.25
2023-01-23T22:56:46.944Z,99833.84
2023-01-23T22:58:54.421Z,99833.94
2023-01-23T23:00:59.528Z,99837.44
2023-01-23T23:03:04.383Z,99834.03
2023-01-23T23:05:10.807Z,99831.53
2023-01-23T23:07:16.970Z,99830.66
2023-01-23T23:09:24.552Z,99834.16
2023-01-23T23:11:30.721Z,99835.88
2023-01-23T23:13:38.697Z,99846.13
2023-01-23T23:15:43.556Z,99841.88
2023-01-23T23:17:48.522Z,99832.44
2023-01-23T23:19:53.676Z,99834.13
2023-01-23T23:21:58.267Z,99829.84
2023-01-23T23:24:03.863Z,99832.41
2023-01-23T23:26:13.280Z,99835.78
2023-01-23T23:28:18.092Z,99828.09
2023-01-23T23:30:23.129Z,99822.94
2023-01-23T23:32:28.062Z,99829.81
2023-01-23T23:34:33.927Z,99828.03
2023-01-23T23:36:39.952Z,99822.00
2023-01-23T23:38:44.818Z,99831.28
2023-01-23T23:40:56.963Z,99825.31
2023-01-23T23:43:04.411Z,99826.16
2023-01-23T23:45:10.857Z,99829.63
2023-01-23T23:47:15.672Z,99819.41
2023-01-23T23:49:20.484Z,99821.09
2023-01-23T23:51:26.729Z,99816.78
2023-01-23T23:53:32.276Z,99827.91
2023-01-23T23:55:37.107Z,99834.69
2023-01-23T23:57:41.955Z,99832.19
2023-01-23T23:59:49.366Z,99819.34
